sensor_id;sensor_type;location;lat;lon;timestamp;P1;durP1;ratioP1;P2;durP2;ratioP2
21941;SDS011;11135;54.192;15.670;2022-10-16T00:02:14;17.05;;;11.68;;
21941;SDS011;11135;54.192;15.670;2022-10-16T00:05:22;15.07;;;11.57;;
21941;SDS011;11135;54.192;15.670;2022-10-16T00:08:30;11.30;;;9.70;;
21941;SDS011;11135;54.192;15.670;2022-10-16T00:11:55;11.80;;;10.57;;
21941;SDS011;11135;54.192;15.670;2022-10-16T00:15:00;13.52;;;11.00;;
21941;SDS011;11135;54.192;15.670;2022-10-16T00:18:35;10.82;;;9.73;;
21941;SDS011;11135;54.192;15.670;2022-10-16T00:21:43;12.20;;;9.63;;
21941;SDS011;11135;54.192;15.670;2022-10-16T00:24:50;11.05;;;9.43;;
21941;SDS011;11135;54.192;15.670;2022-10-16T00:27:58;13.55;;;8.57;;
21941;SDS011;11135;54.192;15.670;2022-10-16T00:31:03;10.25;;;9.13;;
21941;SDS011;11135;54.192;15.670;2022-10-16T00:34:22;10.25;;;8.30;;
21941;SDS011;11135;54.192;15.670;2022-10-16T00:37:27;10.50;;;8.98;;
21941;SDS011;11135;54.192;15.670;2022-10-16T00:40:36;10.88;;;8.68;;
21941;SDS011;11135;54.192;15.670;2022-10-16T00:43:41;10.38;;;8.80;;
21941;SDS011;11135;54.192;15.670;2022-10-16T00:46:48;12.32;;;9.18;;
21941;SDS011;11135;54.192;15.670;2022-10-16T00:49:58;10.30;;;7.95;;
21941;SDS011;11135;54.192;15.670;2022-10-16T00:53:06;10.45;;;8.43;;
21941;SDS011;11135;54.192;15.670;2022-10-16T00:56:12;8.98;;;7.55;;
21941;SDS011;11135;54.192;15.670;2022-10-16T00:59:22;10.88;;;7.53;;
21941;SDS011;11135;54.192;15.670;2022-10-16T01:02:27;10.57;;;8.07;;
21941;SDS011;11135;54.192;15.670;2022-10-16T01:05:38;9.85;;;8.20;;
21941;SDS011;11135;54.192;15.670;2022-10-16T01:08:44;10.07;;;8.27;;
21941;SDS011;11135;54.192;15.670;2022-10-16T01:11:56;10.18;;;8.05;;
21941;SDS011;11135;54.192;15.670;2022-10-16T01:15:08;9.10;;;7.50;;
21941;SDS011;11135;54.192;15.670;2022-10-16T01:18:18;10.77;;;8.15;;
21941;SDS011;11135;54.192;15.670;2022-10-16T01:21:29;9.75;;;7.70;;
21941;SDS011;11135;54.192;15.670;2022-10-16T01:24:43;8.77;;;7.78;;
21941;SDS011;11135;54.192;15.670;2022-10-16T01:27:55;10.60;;;8.38;;
21941;SDS011;11135;54.192;15.670;2022-10-16T01:31:01;9.65;;;7.32;;
21941;SDS011;11135;54.192;15.670;2022-10-16T01:34:10;9.68;;;7.75;;
21941;SDS011;11135;54.192;15.670;2022-10-16T01:37:23;8.57;;;7.22;;
21941;SDS011;11135;54.192;15.670;2022-10-16T01:40:32;9.30;;;6.60;;
21941;SDS011;11135;54.192;15.670;2022-10-16T01:43:44;9.43;;;7.13;;
21941;SDS011;11135;54.192;15.670;2022-10-16T01:46:50;8.93;;;8.00;;
21941;SDS011;11135;54.192;15.670;2022-10-16T01:49:56;9.98;;;8.23;;
21941;SDS011;11135;54.192;15.670;2022-10-16T01:53:02;9.43;;;6.55;;
21941;SDS011;11135;54.192;15.670;2022-10-16T01:56:09;7.70;;;6.78;;
21941;SDS011;11135;54.192;15.670;2022-10-16T01:59:21;8.80;;;6.75;;
21941;SDS011;11135;54.192;15.670;2022-10-16T02:02:29;8.70;;;6.35;;
21941;SDS011;11135;54.192;15.670;2022-10-16T02:05:37;7.60;;;6.60;;
21941;SDS011;11135;54.192;15.670;2022-10-16T02:08:46;7.65;;;6.50;;
21941;SDS011;11135;54.192;15.670;2022-10-16T02:11:51;7.63;;;6.45;;
21941;SDS011;11135;54.192;15.670;2022-10-16T02:15:00;7.45;;;6.15;;
21941;SDS011;11135;54.192;15.670;2022-10-16T02:18:05;7.70;;;5.85;;
21941;SDS011;11135;54.192;15.670;2022-10-16T02:21:14;9.13;;;6.10;;
21941;SDS011;11135;54.192;15.670;2022-10-16T02:24:22;7.57;;;5.78;;
21941;SDS011;11135;54.192;15.670;2022-10-16T02:27:30;9.25;;;6.47;;
21941;SDS011;11135;54.192;15.670;2022-10-16T02:30:41;6.78;;;5.30;;
21941;SDS011;11135;54.192;15.670;2022-10-16T02:33:47;9.32;;;5.75;;
21941;SDS011;11135;54.192;15.670;2022-10-16T02:36:53;7.45;;;5.93;;
21941;SDS011;11135;54.192;15.670;2022-10-16T02:39:59;9.52;;;5.47;;
21941;SDS011;11135;54.192;15.670;2022-10-16T02:43:06;8.45;;;6.05;;
21941;SDS011;11135;54.192;15.670;2022-10-16T02:46:15;7.68;;;5.70;;
21941;SDS011;11135;54.192;15.670;2022-10-16T02:49:21;7.50;;;6.55;;
21941;SDS011;11135;54.192;15.670;2022-10-16T02:52:26;7.68;;;5.93;;
21941;SDS011;11135;54.192;15.670;2022-10-16T02:55:31;7.95;;;6.05;;
21941;SDS011;11135;54.192;15.670;2022-10-16T02:58:36;7.05;;;4.88;;
21941;SDS011;11135;54.192;15.670;2022-10-16T03:01:45;6.57;;;5.18;;
21941;SDS011;11135;54.192;15.670;2022-10-16T03:04:51;8.80;;;5.72;;
21941;SDS011;11135;54.192;15.670;2022-10-16T03:07:56;7.18;;;6.07;;
21941;SDS011;11135;54.192;15.670;2022-10-16T03:11:02;10.15;;;5.88;;
21941;SDS011;11135;54.192;15.670;2022-10-16T03:14:07;7.40;;;6.07;;
21941;SDS011;11135;54.192;15.670;2022-10-16T03:17:17;8.25;;;6.35;;
21941;SDS011;11135;54.192;15.670;2022-10-16T03:20:22;6.93;;;5.57;;
21941;SDS011;11135;54.192;15.670;2022-10-16T03:23:27;8.98;;;6.30;;
21941;SDS011;11135;54.192;15.670;2022-10-16T03:26:32;6.85;;;5.45;;
21941;SDS011;11135;54.192;15.670;2022-10-16T03:29:37;7.25;;;5.80;;
21941;SDS011;11135;54.192;15.670;2022-10-16T03:32:48;7.90;;;5.93;;
21941;SDS011;11135;54.192;15.670;2022-10-16T03:35:56;10.55;;;6.35;;
21941;SDS011;11135;54.192;15.670;2022-10-16T03:39:01;6.55;;;5.30;;
21941;SDS011;11135;54.192;15.670;2022-10-16T03:42:06;8.15;;;5.63;;
21941;SDS011;11135;54.192;15.670;2022-10-16T03:45:11;7.78;;;5.15;;
21941;SDS011;11135;54.192;15.670;2022-10-16T03:48:19;9.55;;;5.60;;
21941;SDS011;11135;54.192;15.670;2022-10-16T03:51:24;6.43;;;5.03;;
21941;SDS011;11135;54.192;15.670;2022-10-16T03:54:29;6.28;;;5.20;;
21941;SDS011;11135;54.192;15.670;2022-10-16T03:57:34;8.57;;;6.03;;
21941;SDS011;11135;54.192;15.670;2022-10-16T04:00:40;8.02;;;5.20;;
21941;SDS011;11135;54.192;15.670;2022-10-16T04:03:47;6.78;;;5.20;;
21941;SDS011;11135;54.192;15.670;2022-10-16T04:06:53;7.45;;;5.18;;
21941;SDS011;11135;54.192;15.670;2022-10-16T04:09:58;6.97;;;4.97;;
21941;SDS011;11135;54.192;15.670;2022-10-16T04:13:04;8.85;;;6.00;;
21941;SDS011;11135;54.192;15.670;2022-10-16T04:16:09;6.78;;;5.50;;
21941;SDS011;11135;54.192;15.670;2022-10-16T04:19:18;7.30;;;5.53;;
21941;SDS011;11135;54.192;15.670;2022-10-16T04:22:23;7.50;;;5.28;;
21941;SDS011;11135;54.192;15.670;2022-10-16T04:25:48;8.75;;;5.32;;
21941;SDS011;11135;54.192;15.670;2022-10-16T04:28:53;8.05;;;5.57;;
21941;SDS011;11135;54.192;15.670;2022-10-16T04:32:00;6.93;;;5.55;;
21941;SDS011;11135;54.192;15.670;2022-10-16T04:35:10;6.43;;;5.30;;
21941;SDS011;11135;54.192;15.670;2022-10-16T04:38:16;8.65;;;5.80;;
21941;SDS011;11135;54.192;15.670;2022-10-16T04:41:21;7.25;;;5.50;;
21941;SDS011;11135;54.192;15.670;2022-10-16T04:44:26;8.63;;;5.60;;
21941;SDS011;11135;54.192;15.670;2022-10-16T04:47:31;7.50;;;5.13;;
21941;SDS011;11135;54.192;15.670;2022-10-16T04:50:39;7.20;;;5.28;;
21941;SDS011;11135;54.192;15.670;2022-10-16T04:53:44;7.25;;;4.57;;
21941;SDS011;11135;54.192;15.670;2022-10-16T04:56:49;6.45;;;4.80;;
21941;SDS011;11135;54.192;15.670;2022-10-16T04:59:54;7.05;;;4.90;;
21941;SDS011;11135;54.192;15.670;2022-10-16T05:03:00;5.97;;;4.80;;
21941;SDS011;11135;54.192;15.670;2022-10-16T05:06:10;6.15;;;5.05;;
21941;SDS011;11135;54.192;15.670;2022-10-16T05:09:15;6.70;;;4.75;;
21941;SDS011;11135;54.192;15.670;2022-10-16T05:12:20;6.93;;;5.00;;
21941;SDS011;11135;54.192;15.670;2022-10-16T05:15:26;6.15;;;5.47;;
21941;SDS011;11135;54.192;15.670;2022-10-16T05:18:31;7.13;;;5.47;;
21941;SDS011;11135;54.192;15.670;2022-10-16T05:21:39;7.60;;;5.18;;
21941;SDS011;11135;54.192;15.670;2022-10-16T05:24:44;6.80;;;5.57;;
21941;SDS011;11135;54.192;15.670;2022-10-16T05:27:49;6.50;;;5.53;;
21941;SDS011;11135;54.192;15.670;2022-10-16T05:30:54;8.68;;;5.10;;
21941;SDS011;11135;54.192;15.670;2022-10-16T05:34:00;6.68;;;5.40;;
21941;SDS011;11135;54.192;15.670;2022-10-16T05:37:08;7.35;;;6.18;;
21941;SDS011;11135;54.192;15.670;2022-10-16T05:40:14;6.30;;;5.35;;
21941;SDS011;11135;54.192;15.670;2022-10-16T05:43:19;8.55;;;5.82;;
21941;SDS011;11135;54.192;15.670;2022-10-16T05:46:24;8.27;;;5.72;;
21941;SDS011;11135;54.192;15.670;2022-10-16T05:49:29;8.60;;;5.75;;
21941;SDS011;11135;54.192;15.670;2022-10-16T05:52:42;6.95;;;5.72;;
21941;SDS011;11135;54.192;15.670;2022-10-16T05:55:51;6.75;;;5.50;;
21941;SDS011;11135;54.192;15.670;2022-10-16T05:58:57;9.25;;;5.90;;
21941;SDS011;11135;54.192;15.670;2022-10-16T06:02:04;7.78;;;5.82;;
21941;SDS011;11135;54.192;15.670;2022-10-16T06:05:09;9.35;;;5.78;;
21941;SDS011;11135;54.192;15.670;2022-10-16T06:08:19;7.25;;;5.95;;
21941;SDS011;11135;54.192;15.670;2022-10-16T06:11:25;7.53;;;5.75;;
21941;SDS011;11135;54.192;15.670;2022-10-16T06:14:31;8.70;;;6.05;;
21941;SDS011;11135;54.192;15.670;2022-10-16T06:17:36;7.78;;;5.95;;
21941;SDS011;11135;54.192;15.670;2022-10-16T06:20:42;7.10;;;6.20;;
21941;SDS011;11135;54.192;15.670;2022-10-16T06:23:51;7.30;;;6.00;;
21941;SDS011;11135;54.192;15.670;2022-10-16T06:26:56;9.23;;;5.63;;
21941;SDS011;11135;54.192;15.670;2022-10-16T06:30:10;7.18;;;5.40;;
21941;SDS011;11135;54.192;15.670;2022-10-16T06:33:15;6.65;;;5.45;;
21941;SDS011;11135;54.192;15.670;2022-10-16T06:36:21;7.43;;;6.15;;
21941;SDS011;11135;54.192;15.670;2022-10-16T06:39:31;11.48;;;6.38;;
21941;SDS011;11135;54.192;15.670;2022-10-16T06:42:38;6.90;;;5.43;;
21941;SDS011;11135;54.192;15.670;2022-10-16T06:45:49;10.50;;;6.07;;
21941;SDS011;11135;54.192;15.670;2022-10-16T06:48:55;7.32;;;5.63;;
21941;SDS011;11135;54.192;15.670;2022-10-16T06:52:00;11.23;;;6.85;;
21941;SDS011;11135;54.192;15.670;2022-10-16T06:55:08;6.88;;;5.82;;
21941;SDS011;11135;54.192;15.670;2022-10-16T06:58:13;6.63;;;5.22;;
21941;SDS011;11135;54.192;15.670;2022-10-16T07:01:19;8.25;;;5.60;;
21941;SDS011;11135;54.192;15.670;2022-10-16T07:04:24;8.00;;;5.90;;
21941;SDS011;11135;54.192;15.670;2022-10-16T07:07:31;8.73;;;7.00;;
21941;SDS011;11135;54.192;15.670;2022-10-16T07:10:39;9.93;;;5.78;;
21941;SDS011;11135;54.192;15.670;2022-10-16T07:13:47;7.55;;;5.72;;
21941;SDS011;11135;54.192;15.670;2022-10-16T07:16:59;7.70;;;5.45;;
21941;SDS011;11135;54.192;15.670;2022-10-16T07:20:06;10.88;;;5.85;;
21941;SDS011;11135;54.192;15.670;2022-10-16T07:23:11;8.77;;;5.80;;
21941;SDS011;11135;54.192;15.670;2022-10-16T07:26:19;8.75;;;6.00;;
21941;SDS011;11135;54.192;15.670;2022-10-16T07:29:24;8.93;;;5.10;;
21941;SDS011;11135;54.192;15.670;2022-10-16T07:32:30;8.27;;;5.53;;
21941;SDS011;11135;54.192;15.670;2022-10-16T07:35:37;6.22;;;4.82;;
21941;SDS011;11135;54.192;15.670;2022-10-16T07:38:47;7.07;;;5.30;;
21941;SDS011;11135;54.192;15.670;2022-10-16T07:42:10;7.18;;;5.00;;
21941;SDS011;11135;54.192;15.670;2022-10-16T07:45:50;8.43;;;5.03;;
21941;SDS011;11135;54.192;15.670;2022-10-16T07:49:13;6.47;;;5.13;;
21941;SDS011;11135;54.192;15.670;2022-10-16T07:52:19;5.88;;;4.93;;
21941;SDS011;11135;54.192;15.670;2022-10-16T07:55:29;8.88;;;5.35;;
21941;SDS011;11135;54.192;15.670;2022-10-16T07:58:40;6.25;;;4.45;;
21941;SDS011;11135;54.192;15.670;2022-10-16T08:01:48;4.75;;;4.13;;
21941;SDS011;11135;54.192;15.670;2022-10-16T08:04:55;6.07;;;4.15;;
21941;SDS011;11135;54.192;15.670;2022-10-16T08:08:02;5.30;;;3.78;;
21941;SDS011;11135;54.192;15.670;2022-10-16T08:11:12;5.65;;;3.92;;
21941;SDS011;11135;54.192;15.670;2022-10-16T08:14:24;7.45;;;4.10;;
21941;SDS011;11135;54.192;15.670;2022-10-16T08:17:33;7.15;;;3.50;;
21941;SDS011;11135;54.192;15.670;2022-10-16T08:20:39;5.25;;;3.38;;
21941;SDS011;11135;54.192;15.670;2022-10-16T08:23:52;4.55;;;3.58;;
21941;SDS011;11135;54.192;15.670;2022-10-16T08:27:10;5.60;;;3.67;;
21941;SDS011;11135;54.192;15.670;2022-10-16T08:30:34;6.07;;;3.38;;
21941;SDS011;11135;54.192;15.670;2022-10-16T08:33:53;5.10;;;3.47;;
21941;SDS011;11135;54.192;15.670;2022-10-16T08:37:12;4.53;;;2.90;;
21941;SDS011;11135;54.192;15.670;2022-10-16T08:40:26;4.28;;;2.95;;
21941;SDS011;11135;54.192;15.670;2022-10-16T08:43:41;6.38;;;2.85;;
21941;SDS011;11135;54.192;15.670;2022-10-16T08:47:06;3.55;;;2.50;;
21941;SDS011;11135;54.192;15.670;2022-10-16T08:50:32;6.28;;;2.67;;
21941;SDS011;11135;54.192;15.670;2022-10-16T08:53:41;4.15;;;3.25;;
21941;SDS011;11135;54.192;15.670;2022-10-16T08:56:53;4.35;;;2.65;;
21941;SDS011;11135;54.192;15.670;2022-10-16T09:00:08;3.63;;;2.40;;
21941;SDS011;11135;54.192;15.670;2022-10-16T09:03:42;6.15;;;2.33;;
21941;SDS011;11135;54.192;15.670;2022-10-16T09:07:04;5.40;;;2.80;;
21941;SDS011;11135;54.192;15.670;2022-10-16T09:10:39;4.18;;;2.33;;
21941;SDS011;11135;54.192;15.670;2022-10-16T09:14:18;4.18;;;2.38;;
21941;SDS011;11135;54.192;15.670;2022-10-16T09:17:53;3.28;;;2.38;;
21941;SDS011;11135;54.192;15.670;2022-10-16T09:21:13;2.85;;;2.22;;
21941;SDS011;11135;54.192;15.670;2022-10-16T09:24:23;5.63;;;2.35;;
21941;SDS011;11135;54.192;15.670;2022-10-16T09:27:33;5.30;;;2.47;;
21941;SDS011;11135;54.192;15.670;2022-10-16T09:30:40;5.05;;;2.63;;
21941;SDS011;11135;54.192;15.670;2022-10-16T09:33:47;5.35;;;2.38;;
21941;SDS011;11135;54.192;15.670;2022-10-16T09:37:04;4.75;;;3.05;;
21941;SDS011;11135;54.192;15.670;2022-10-16T09:40:12;4.57;;;2.22;;
21941;SDS011;11135;54.192;15.670;2022-10-16T09:43:34;3.05;;;2.10;;
21941;SDS011;11135;54.192;15.670;2022-10-16T09:46:40;5.60;;;2.60;;
21941;SDS011;11135;54.192;15.670;2022-10-16T09:50:05;4.80;;;2.70;;
21941;SDS011;11135;54.192;15.670;2022-10-16T09:53:44;4.32;;;2.30;;
21941;SDS011;11135;54.192;15.670;2022-10-16T09:57:04;5.40;;;2.45;;
21941;SDS011;11135;54.192;15.670;2022-10-16T10:00:11;4.05;;;2.22;;
21941;SDS011;11135;54.192;15.670;2022-10-16T10:03:22;7.20;;;2.50;;
21941;SDS011;11135;54.192;15.670;2022-10-16T10:06:35;4.50;;;2.60;;
21941;SDS011;11135;54.192;15.670;2022-10-16T10:09:45;5.15;;;2.58;;
21941;SDS011;11135;54.192;15.670;2022-10-16T10:12:59;4.82;;;2.47;;
21941;SDS011;11135;54.192;15.670;2022-10-16T10:16:08;4.43;;;2.42;;
21941;SDS011;11135;54.192;15.670;2022-10-16T10:19:21;5.78;;;2.47;;
21941;SDS011;11135;54.192;15.670;2022-10-16T10:22:39;6.07;;;2.78;;
21941;SDS011;11135;54.192;15.670;2022-10-16T10:29:04;3.33;;;2.05;;
21941;SDS011;11135;54.192;15.670;2022-10-16T10:32:15;3.00;;;1.98;;
21941;SDS011;11135;54.192;15.670;2022-10-16T10:35:32;5.20;;;2.05;;
21941;SDS011;11135;54.192;15.670;2022-10-16T10:38:43;4.03;;;2.20;;
21941;SDS011;11135;54.192;15.670;2022-10-16T10:42:01;5.82;;;2.20;;
21941;SDS011;11135;54.192;15.670;2022-10-16T10:45:17;7.68;;;2.47;;
21941;SDS011;11135;54.192;15.670;2022-10-16T10:51:53;8.52;;;2.50;;
21941;SDS011;11135;54.192;15.670;2022-10-16T10:55:09;4.07;;;1.92;;
21941;SDS011;11135;54.192;15.670;2022-10-16T10:58:26;5.20;;;2.45;;
21941;SDS011;11135;54.192;15.670;2022-10-16T11:01:44;4.18;;;2.33;;
21941;SDS011;11135;54.192;15.670;2022-10-16T11:05:07;4.70;;;2.30;;
21941;SDS011;11135;54.192;15.670;2022-10-16T11:08:27;3.22;;;1.80;;
21941;SDS011;11135;54.192;15.670;2022-10-16T11:11:35;3.97;;;1.95;;
21941;SDS011;11135;54.192;15.670;2022-10-16T11:14:45;4.10;;;2.20;;
21941;SDS011;11135;54.192;15.670;2022-10-16T11:17:57;5.68;;;2.15;;
21941;SDS011;11135;54.192;15.670;2022-10-16T11:21:11;4.30;;;1.80;;
21941;SDS011;11135;54.192;15.670;2022-10-16T11:24:20;7.07;;;2.15;;
21941;SDS011;11135;54.192;15.670;2022-10-16T11:27:34;4.18;;;2.10;;
21941;SDS011;11135;54.192;15.670;2022-10-16T11:30:42;4.15;;;2.33;;
21941;SDS011;11135;54.192;15.670;2022-10-16T11:33:57;4.03;;;1.90;;
21941;SDS011;11135;54.192;15.670;2022-10-16T11:40:17;3.08;;;1.80;;
21941;SDS011;11135;54.192;15.670;2022-10-16T11:43:25;5.30;;;1.98;;
21941;SDS011;11135;54.192;15.670;2022-10-16T11:46:35;3.60;;;1.92;;
21941;SDS011;11135;54.192;15.670;2022-10-16T11:50:06;4.70;;;2.00;;
21941;SDS011;11135;54.192;15.670;2022-10-16T11:53:23;4.28;;;2.33;;
21941;SDS011;11135;54.192;15.670;2022-10-16T11:56:31;2.42;;;1.65;;
21941;SDS011;11135;54.192;15.670;2022-10-16T11:59:40;4.28;;;1.80;;
21941;SDS011;11135;54.192;15.670;2022-10-16T12:02:52;3.40;;;1.58;;
21941;SDS011;11135;54.192;15.670;2022-10-16T12:06:19;2.75;;;1.50;;
21941;SDS011;11135;54.192;15.670;2022-10-16T12:09:32;4.72;;;1.80;;
21941;SDS011;11135;54.192;15.670;2022-10-16T12:12:40;4.65;;;1.85;;
21941;SDS011;11135;54.192;15.670;2022-10-16T12:15:50;4.57;;;1.50;;
21941;SDS011;11135;54.192;15.670;2022-10-16T12:19:10;2.72;;;1.45;;
21941;SDS011;11135;54.192;15.670;2022-10-16T12:22:18;5.32;;;1.33;;
21941;SDS011;11135;54.192;15.670;2022-10-16T12:25:29;5.75;;;1.80;;
21941;SDS011;11135;54.192;15.670;2022-10-16T12:28:37;4.70;;;1.75;;
21941;SDS011;11135;54.192;15.670;2022-10-16T12:31:45;2.65;;;1.40;;
21941;SDS011;11135;54.192;15.670;2022-10-16T12:34:59;4.03;;;1.88;;
21941;SDS011;11135;54.192;15.670;2022-10-16T12:38:12;2.33;;;1.20;;
21941;SDS011;11135;54.192;15.670;2022-10-16T12:41:30;3.83;;;1.55;;
21941;SDS011;11135;54.192;15.670;2022-10-16T12:44:38;3.40;;;1.60;;
21941;SDS011;11135;54.192;15.670;2022-10-16T12:47:48;2.53;;;1.20;;
21941;SDS011;11135;54.192;15.670;2022-10-16T12:50:54;7.90;;;1.67;;
21941;SDS011;11135;54.192;15.670;2022-10-16T12:54:03;6.72;;;1.80;;
21941;SDS011;11135;54.192;15.670;2022-10-16T12:57:17;3.67;;;1.75;;
21941;SDS011;11135;54.192;15.670;2022-10-16T13:00:28;4.35;;;1.67;;
21941;SDS011;11135;54.192;15.670;2022-10-16T13:04:00;2.90;;;1.88;;
21941;SDS011;11135;54.192;15.670;2022-10-16T13:07:21;3.15;;;1.40;;
21941;SDS011;11135;54.192;15.670;2022-10-16T13:10:35;5.03;;;2.22;;
21941;SDS011;11135;54.192;15.670;2022-10-16T13:14:09;4.75;;;1.65;;
21941;SDS011;11135;54.192;15.670;2022-10-16T13:17:23;2.47;;;1.48;;
21941;SDS011;11135;54.192;15.670;2022-10-16T13:20:33;4.20;;;1.40;;
21941;SDS011;11135;54.192;15.670;2022-10-16T13:26:53;3.33;;;1.17;;
21941;SDS011;11135;54.192;15.670;2022-10-16T13:30:08;5.38;;;1.42;;
21941;SDS011;11135;54.192;15.670;2022-10-16T13:33:14;6.90;;;1.50;;
21941;SDS011;11135;54.192;15.670;2022-10-16T13:36:25;3.15;;;1.50;;
21941;SDS011;11135;54.192;15.670;2022-10-16T13:39:34;3.42;;;1.48;;
21941;SDS011;11135;54.192;15.670;2022-10-16T13:42:44;3.55;;;1.95;;
21941;SDS011;11135;54.192;15.670;2022-10-16T13:45:54;4.00;;;1.50;;
21941;SDS011;11135;54.192;15.670;2022-10-16T13:49:03;1.98;;;1.35;;
21941;SDS011;11135;54.192;15.670;2022-10-16T13:52:15;3.55;;;1.50;;
21941;SDS011;11135;54.192;15.670;2022-10-16T13:55:23;5.03;;;1.45;;
21941;SDS011;11135;54.192;15.670;2022-10-16T13:58:35;3.65;;;1.60;;
21941;SDS011;11135;54.192;15.670;2022-10-16T14:01:41;5.53;;;1.70;;
21941;SDS011;11135;54.192;15.670;2022-10-16T14:04:52;4.55;;;1.55;;
21941;SDS011;11135;54.192;15.670;2022-10-16T14:07:59;5.70;;;2.00;;
21941;SDS011;11135;54.192;15.670;2022-10-16T14:11:04;4.30;;;1.27;;
21941;SDS011;11135;54.192;15.670;2022-10-16T14:14:16;3.63;;;1.70;;
21941;SDS011;11135;54.192;15.670;2022-10-16T14:17:24;3.15;;;1.48;;
21941;SDS011;11135;54.192;15.670;2022-10-16T14:20:33;3.80;;;1.40;;
21941;SDS011;11135;54.192;15.670;2022-10-16T14:23:40;3.53;;;1.60;;
21941;SDS011;11135;54.192;15.670;2022-10-16T14:26:49;6.03;;;1.50;;
21941;SDS011;11135;54.192;15.670;2022-10-16T14:33:23;4.53;;;1.60;;
21941;SDS011;11135;54.192;15.670;2022-10-16T14:36:30;4.93;;;1.60;;
21941;SDS011;11135;54.192;15.670;2022-10-16T14:39:38;4.35;;;1.70;;
21941;SDS011;11135;54.192;15.670;2022-10-16T14:42:45;5.35;;;1.50;;
21941;SDS011;11135;54.192;15.670;2022-10-16T14:45:57;4.03;;;1.75;;
21941;SDS011;11135;54.192;15.670;2022-10-16T14:49:14;4.45;;;1.70;;
21941;SDS011;11135;54.192;15.670;2022-10-16T14:52:21;4.13;;;1.65;;
21941;SDS011;11135;54.192;15.670;2022-10-16T14:55:26;4.00;;;1.60;;
21941;SDS011;11135;54.192;15.670;2022-10-16T14:58:34;4.38;;;1.70;;
21941;SDS011;11135;54.192;15.670;2022-10-16T15:01:51;4.32;;;1.83;;
21941;SDS011;11135;54.192;15.670;2022-10-16T15:05:04;3.42;;;1.63;;
21941;SDS011;11135;54.192;15.670;2022-10-16T15:08:12;4.45;;;1.60;;
21941;SDS011;11135;54.192;15.670;2022-10-16T15:11:28;5.90;;;2.00;;
21941;SDS011;11135;54.192;15.670;2022-10-16T15:14:35;5.68;;;1.80;;
21941;SDS011;11135;54.192;15.670;2022-10-16T15:17:43;3.53;;;1.70;;
21941;SDS011;11135;54.192;15.670;2022-10-16T15:20:58;3.75;;;2.00;;
21941;SDS011;11135;54.192;15.670;2022-10-16T15:24:08;2.67;;;1.70;;
21941;SDS011;11135;54.192;15.670;2022-10-16T15:27:22;4.00;;;1.70;;
21941;SDS011;11135;54.192;15.670;2022-10-16T15:30:30;3.20;;;1.45;;
21941;SDS011;11135;54.192;15.670;2022-10-16T15:33:38;4.30;;;1.90;;
21941;SDS011;11135;54.192;15.670;2022-10-16T15:36:50;4.22;;;1.55;;
21941;SDS011;11135;54.192;15.670;2022-10-16T15:39:59;5.22;;;1.90;;
21941;SDS011;11135;54.192;15.670;2022-10-16T15:43:10;4.53;;;1.80;;
21941;SDS011;11135;54.192;15.670;2022-10-16T15:46:17;3.63;;;1.63;;
21941;SDS011;11135;54.192;15.670;2022-10-16T15:49:25;5.40;;;1.95;;
21941;SDS011;11135;54.192;15.670;2022-10-16T15:52:33;2.85;;;1.52;;
21941;SDS011;11135;54.192;15.670;2022-10-16T15:55:40;4.50;;;1.63;;
21941;SDS011;11135;54.192;15.670;2022-10-16T15:58:45;2.30;;;1.50;;
21941;SDS011;11135;54.192;15.670;2022-10-16T16:01:52;2.95;;;1.60;;
21941;SDS011;11135;54.192;15.670;2022-10-16T16:04:59;2.53;;;1.70;;
21941;SDS011;11135;54.192;15.670;2022-10-16T16:08:12;3.67;;;1.90;;
21941;SDS011;11135;54.192;15.670;2022-10-16T16:11:19;4.55;;;2.13;;
21941;SDS011;11135;54.192;15.670;2022-10-16T16:14:26;3.67;;;2.08;;
21941;SDS011;11135;54.192;15.670;2022-10-16T16:17:34;3.95;;;1.92;;
21941;SDS011;11135;54.192;15.670;2022-10-16T16:20:40;3.22;;;2.15;;
21941;SDS011;11135;54.192;15.670;2022-10-16T16:23:48;6.38;;;1.95;;
21941;SDS011;11135;54.192;15.670;2022-10-16T16:30:13;4.80;;;2.28;;
21941;SDS011;11135;54.192;15.670;2022-10-16T16:33:23;4.75;;;2.08;;
21941;SDS011;11135;54.192;15.670;2022-10-16T16:36:34;3.65;;;2.17;;
21941;SDS011;11135;54.192;15.670;2022-10-16T16:39:42;5.13;;;2.25;;
21941;SDS011;11135;54.192;15.670;2022-10-16T16:42:49;5.80;;;2.20;;
21941;SDS011;11135;54.192;15.670;2022-10-16T16:45:59;3.50;;;1.80;;
21941;SDS011;11135;54.192;15.670;2022-10-16T16:49:06;4.47;;;2.25;;
21941;SDS011;11135;54.192;15.670;2022-10-16T16:52:13;5.22;;;2.22;;
21941;SDS011;11135;54.192;15.670;2022-10-16T16:55:21;4.72;;;2.47;;
21941;SDS011;11135;54.192;15.670;2022-10-16T16:58:34;5.88;;;2.30;;
21941;SDS011;11135;54.192;15.670;2022-10-16T17:01:43;5.05;;;2.70;;
21941;SDS011;11135;54.192;15.670;2022-10-16T17:04:49;3.92;;;3.00;;
21941;SDS011;11135;54.192;15.670;2022-10-16T17:07:59;5.05;;;2.80;;
21941;SDS011;11135;54.192;15.670;2022-10-16T17:11:11;5.43;;;2.92;;
21941;SDS011;11135;54.192;15.670;2022-10-16T17:14:17;10.63;;;3.65;;
21941;SDS011;11135;54.192;15.670;2022-10-16T17:17:32;4.82;;;2.83;;
21941;SDS011;11135;54.192;15.670;2022-10-16T17:20:40;6.63;;;3.33;;
21941;SDS011;11135;54.192;15.670;2022-10-16T17:23:46;8.10;;;3.60;;
21941;SDS011;11135;54.192;15.670;2022-10-16T17:26:57;4.80;;;3.08;;
21941;SDS011;11135;54.192;15.670;2022-10-16T17:30:07;6.63;;;3.33;;
21941;SDS011;11135;54.192;15.670;2022-10-16T17:33:13;6.78;;;3.40;;
21941;SDS011;11135;54.192;15.670;2022-10-16T17:36:21;6.45;;;3.78;;
21941;SDS011;11135;54.192;15.670;2022-10-16T17:39:27;5.97;;;3.75;;
21941;SDS011;11135;54.192;15.670;2022-10-16T17:42:36;4.88;;;3.20;;
21941;SDS011;11135;54.192;15.670;2022-10-16T17:45:41;7.28;;;4.28;;
21941;SDS011;11135;54.192;15.670;2022-10-16T17:48:47;5.65;;;3.90;;
21941;SDS011;11135;54.192;15.670;2022-10-16T17:51:55;7.50;;;3.80;;
21941;SDS011;11135;54.192;15.670;2022-10-16T17:55:05;5.70;;;3.58;;
21941;SDS011;11135;54.192;15.670;2022-10-16T17:58:13;8.18;;;3.97;;
21941;SDS011;11135;54.192;15.670;2022-10-16T18:01:20;5.80;;;3.65;;
21941;SDS011;11135;54.192;15.670;2022-10-16T18:04:25;8.05;;;3.63;;
21941;SDS011;11135;54.192;15.670;2022-10-16T18:07:32;6.47;;;3.63;;
21941;SDS011;11135;54.192;15.670;2022-10-16T18:10:44;6.75;;;3.88;;
21941;SDS011;11135;54.192;15.670;2022-10-16T18:13:53;4.03;;;2.80;;
21941;SDS011;11135;54.192;15.670;2022-10-16T18:16:58;5.15;;;3.00;;
21941;SDS011;11135;54.192;15.670;2022-10-16T18:20:05;5.40;;;3.15;;
21941;SDS011;11135;54.192;15.670;2022-10-16T18:23:11;4.53;;;2.95;;
21941;SDS011;11135;54.192;15.670;2022-10-16T18:26:19;5.43;;;3.15;;
21941;SDS011;11135;54.192;15.670;2022-10-16T18:29:26;4.75;;;3.17;;
21941;SDS011;11135;54.192;15.670;2022-10-16T18:32:34;4.93;;;3.30;;
21941;SDS011;11135;54.192;15.670;2022-10-16T18:35:39;6.32;;;3.35;;
21941;SDS011;11135;54.192;15.670;2022-10-16T18:38:49;4.50;;;2.80;;
21941;SDS011;11135;54.192;15.670;2022-10-16T18:41:55;4.60;;;3.38;;
21941;SDS011;11135;54.192;15.670;2022-10-16T18:45:05;5.63;;;3.40;;
21941;SDS011;11135;54.192;15.670;2022-10-16T18:48:10;6.68;;;3.47;;
21941;SDS011;11135;54.192;15.670;2022-10-16T18:51:16;5.68;;;3.58;;
21941;SDS011;11135;54.192;15.670;2022-10-16T18:54:22;4.90;;;3.05;;
21941;SDS011;11135;54.192;15.670;2022-10-16T18:57:29;5.53;;;3.00;;
21941;SDS011;11135;54.192;15.670;2022-10-16T19:00:39;5.95;;;3.22;;
21941;SDS011;11135;54.192;15.670;2022-10-16T19:03:45;6.25;;;2.60;;
21941;SDS011;11135;54.192;15.670;2022-10-16T19:06:56;6.28;;;3.00;;